Time,TemperatureF,DewpointF,PressureIn,WindDirection,WindDirectionDegrees,WindSpeedMPH,WindSpeedGustMPH,Humidity,HourlyPrecipIn,Conditions,Clouds,dailyrainin,SoftwareType,DateUTC
2013-07-25 00:05:00,52.7,48.0,30.01,East,90,0.0,-999.0,84,-99.99,,,0.00,Acu-Link.com,2013-07-25 04:05:00,
2013-07-25 00:20:00,52.3,47.9,30.01,ESE,112,2.2,-999.0,85,-99.99,,,0.00,Acu-Link.com,2013-07-25 04:20:00,
2013-07-25 00:36:00,52.0,47.6,30.01,SSE,157,3.2,-999.0,85,-99.99,,,0.00,Acu-Link.com,2013-07-25 04:36:00,
2013-07-25 01:06:00,51.4,47.4,30.01,ESE,112,0.0,-999.0,86,-99.99,,,0.00,Acu-Link.com,2013-07-25 05:06:00,
2013-07-25 01:22:00,51.3,47.6,30.01,SE,135,2.7,-999.0,87,-99.99,,,0.00,Acu-Link.com,2013-07-25 05:22:00,
2013-07-25 01:37:00,51.1,47.4,30.01,ESE,112,1.7,-999.0,87,-99.99,,,0.00,Acu-Link.com,2013-07-25 05:37:00,
2013-07-25 01:53:00,50.7,47.3,30.01,ESE,112,1.7,-999.0,88,-99.99,,,0.00,Acu-Link.com,2013-07-25 05:53:00,
2013-07-25 02:08:00,50.5,47.1,30.00,ESE,112,2.7,-999.0,88,-99.99,,,0.00,Acu-Link.com,2013-07-25 06:08:00,
2013-07-25 02:23:00,50.4,47.3,30.00,ESE,112,1.7,-999.0,89,-99.99,,,0.00,Acu-Link.com,2013-07-25 06:23:00,
2013-07-25 02:38:00,50.4,47.0,30.00,ESE,112,0.0,-999.0,88,-99.99,,,0.00,Acu-Link.com,2013-07-25 06:38:00,
2013-07-25 02:54:00,50.2,47.1,30.00,NE,45,1.7,-999.0,89,-99.99,,,0.00,Acu-Link.com,2013-07-25 06:54:00,
2013-07-25 03:09:00,50.4,47.6,30.01,SE,135,1.1,-999.0,90,-99.99,,,0.00,Acu-Link.com,2013-07-25 07:09:00,
2013-07-25 03:24:00,50.0,47.2,30.00,ESE,112,1.7,-999.0,90,-99.99,,,0.00,Acu-Link.com,2013-07-25 07:24:00,
2013-07-25 03:40:00,50.0,47.2,30.00,East,90,0.0,-999.0,90,-99.99,,,0.00,Acu-Link.com,2013-07-25 07:40:00,
2013-07-25 03:55:00,49.5,46.4,30.00,SSE,157,0.0,-999.0,89,-99.99,,,0.00,Acu-Link.com,2013-07-25 07:55:00,
2013-07-25 04:11:00,49.5,47.0,30.02,East,90,1.1,-999.0,91,-99.99,,,0.00,Acu-Link.com,2013-07-25 08:11:00,
2013-07-25 04:26:00,49.5,47.0,30.02,East,90,0.0,-999.0,91,-99.99,,,0.00,Acu-Link.com,2013-07-25 08:26:00,
2013-07-25 04:41:00,49.3,47.1,30.02,SW,225,0.0,-999.0,92,-99.99,,,0.00,Acu-Link.com,2013-07-25 08:41:00,
2013-07-25 04:56:00,48.7,46.5,30.02,SE,135,0.0,-999.0,92,-99.99,,,0.00,Acu-Link.com,2013-07-25 08:56:00,
2013-07-25 05:11:00,48.2,46.3,30.03,SSE,157,0.0,-999.0,93,-99.99,,,0.00,Acu-Link.com,2013-07-25 09:11:00,
2013-07-25 05:26:00,47.7,46.1,30.03,NNE,22,0.0,-999.0,94,-99.99,,,0.00,Acu-Link.com,2013-07-25 09:26:00,
2013-07-25 05:41:00,47.3,45.9,30.04,WNW,292,0.0,-999.0,95,-99.99,,,0.00,Acu-Link.com,2013-07-25 09:41:00,
2013-07-25 05:57:00,46.8,45.7,30.04,NE,45,0.0,-999.0,96,-99.99,,,0.00,Acu-Link.com,2013-07-25 09:57:00,
2013-07-25 06:12:00,46.8,46.0,30.05,North,0,0.0,-999.0,97,-99.99,,,0.00,Acu-Link.com,2013-07-25 10:12:00,
2013-07-25 06:27:00,46.8,46.0,30.06,WSW,247,0.0,-999.0,97,-99.99,,,0.00,Acu-Link.com,2013-07-25 10:27:00,
2013-07-25 06:42:00,48.0,47.5,30.06,WNW,292,1.7,-999.0,98,-99.99,,,0.00,Acu-Link.com,2013-07-25 10:42:00,
2013-07-25 06:58:00,48.9,48.1,30.06,NNW,337,1.1,-999.0,97,-99.99,,,0.00,Acu-Link.com,2013-07-25 10:58:00,
2013-07-25 07:13:00,50.5,49.7,30.06,NNW,337,1.1,-999.0,97,-99.99,,,0.00,Acu-Link.com,2013-07-25 11:13:00,
2013-07-25 07:28:00,51.6,49.9,30.07,North,0,0.0,-999.0,94,-99.99,,,0.00,Acu-Link.com,2013-07-25 11:28:00,
2013-07-25 07:44:00,52.9,50.3,30.07,ESE,112,0.0,-999.0,91,-99.99,,,0.00,Acu-Link.com,2013-07-25 11:44:00,
2013-07-25 07:59:00,53.8,50.6,30.08,South,180,2.2,-999.0,89,-99.99,,,0.00,Acu-Link.com,2013-07-25 11:59:00,
2013-07-25 08:14:00,54.7,50.9,30.09,NNW,337,1.7,-999.0,87,-99.99,,,0.00,Acu-Link.com,2013-07-25 12:14:00,
2013-07-25 08:30:00,55.8,51.0,30.09,NNE,22,1.7,-999.0,84,-99.99,,,0.00,Acu-Link.com,2013-07-25 12:30:00,
2013-07-25 08:45:00,56.7,50.9,30.09,NNE,22,2.2,-999.0,81,-99.99,,,0.00,Acu-Link.com,2013-07-25 12:45:00,
2013-07-25 09:00:00,57.7,51.9,30.10,North,0,2.7,-999.0,81,-99.99,,,0.00,Acu-Link.com,2013-07-25 13:00:00,
2013-07-25 09:16:00,58.1,51.3,30.10,NNE,22,3.2,-999.0,78,-99.99,,,0.00,Acu-Link.com,2013-07-25 13:16:00,
2013-07-25 09:31:00,58.8,52.0,30.10,SW,225,1.1,-999.0,78,-99.99,,,0.00,Acu-Link.com,2013-07-25 13:31:00,
2013-07-25 10:02:00,60.4,52.8,30.10,SSW,202,0.0,-999.0,76,-99.99,,,0.00,Acu-Link.com,2013-07-25 14:02:00,
2013-07-25 10:17:00,60.8,52.5,30.10,NE,45,1.7,-999.0,74,-99.99,,,0.00,Acu-Link.com,2013-07-25 14:17:00,
2013-07-25 10:32:00,62.2,53.1,30.10,SSE,157,1.7,-999.0,72,-99.99,,,0.00,Acu-Link.com,2013-07-25 14:32:00,
2013-07-25 10:48:00,63.5,54.3,30.10,ESE,112,1.1,-999.0,72,-99.99,,,0.00,Acu-Link.com,2013-07-25 14:48:00,
2013-07-25 11:03:00,63.9,54.7,30.10,South,180,0.0,-999.0,72,-99.99,,,0.00,Acu-Link.com,2013-07-25 15:03:00,
2013-07-25 11:18:00,64.8,54.4,30.10,East,90,1.1,-999.0,69,-99.99,,,0.00,Acu-Link.com,2013-07-25 15:18:00,
2013-07-25 11:34:00,64.9,53.7,30.11,North,0,2.2,-999.0,67,-99.99,,,0.00,Acu-Link.com,2013-07-25 15:34:00,
2013-07-25 11:49:00,66.2,55.3,30.10,WNW,292,1.7,-999.0,68,-99.99,,,0.00,Acu-Link.com,2013-07-25 15:49:00,
2013-07-25 12:04:00,66.6,54.0,30.11,WNW,292,2.2,-999.0,64,-99.99,,,0.00,Acu-Link.com,2013-07-25 16:04:00,
2013-07-25 12:20:00,66.0,53.5,30.11,East,90,0.0,-999.0,64,-99.99,,,0.00,Acu-Link.com,2013-07-25 16:20:00,
2013-07-25 12:35:00,68.5,56.3,30.10,ESE,112,0.0,-999.0,65,-99.99,,,0.00,Acu-Link.com,2013-07-25 16:35:00,
2013-07-25 12:50:00,68.0,55.4,30.09,NE,45,1.7,-999.0,64,-99.99,,,0.00,Acu-Link.com,2013-07-25 16:50:00,
2013-07-25 13:05:00,71.4,55.8,30.10,NNE,22,2.2,-999.0,58,-99.99,,,0.00,Acu-Link.com,2013-07-25 17:05:00,
2013-07-25 13:20:00,71.1,56.0,30.09,NNW,337,2.2,-999.0,59,-99.99,,,0.00,Acu-Link.com,2013-07-25 17:20:00,
2013-07-25 13:36:00,70.7,57.0,30.09,ESE,112,1.7,-999.0,62,-99.99,,,0.00,Acu-Link.com,2013-07-25 17:36:00,
2013-07-25 14:22:00,67.5,56.6,30.09,NNE,22,2.2,-999.0,68,-99.99,,,0.00,Acu-Link.com,2013-07-25 18:22:00,
2013-07-25 14:37:00,68.0,56.6,30.09,NNE,22,0.0,-999.0,67,-99.99,,,0.00,Acu-Link.com,2013-07-25 18:37:00,
2013-07-25 14:52:00,68.0,56.6,30.09,North,0,2.7,-999.0,67,-99.99,,,0.00,Acu-Link.com,2013-07-25 18:52:00,
2013-07-25 15:08:00,68.2,57.2,30.08,NNE,22,1.1,-999.0,68,-99.99,,,0.00,Acu-Link.com,2013-07-25 19:08:00,
2013-07-25 15:23:00,69.1,57.7,30.09,NNW,337,4.2,-999.0,67,-99.99,,,0.00,Acu-Link.com,2013-07-25 19:23:00,
2013-07-25 15:38:00,68.5,57.1,30.09,ENE,67,0.0,-999.0,67,-99.99,,,0.00,Acu-Link.com,2013-07-25 19:38:00,
2013-07-25 15:53:00,69.1,57.7,30.09,ENE,67,0.0,-999.0,67,-99.99,,,0.00,Acu-Link.com,2013-07-25 19:53:00,
2013-07-25 16:09:00,68.9,58.7,30.08,NNW,337,0.0,-999.0,70,-99.99,,,0.00,Acu-Link.com,2013-07-25 20:09:00,
2013-07-25 16:24:00,69.4,58.4,30.08,NNE,22,0.0,-999.0,68,-99.99,,,0.00,Acu-Link.com,2013-07-25 20:24:00,
2013-07-25 16:39:00,69.1,58.5,30.08,West,270,0.0,-999.0,69,-99.99,,,0.00,Acu-Link.com,2013-07-25 20:39:00,
2013-07-25 16:55:00,68.9,60.3,30.09,South,180,0.0,-999.0,74,-99.99,,,0.00,Acu-Link.com,2013-07-25 20:55:00,
2013-07-25 17:10:00,68.5,59.1,30.09,SW,225,0.0,-999.0,72,-99.99,,,0.00,Acu-Link.com,2013-07-25 21:10:00,
2013-07-25 17:25:00,68.2,60.0,30.09,WSW,247,0.0,-999.0,75,-99.99,,,0.00,Acu-Link.com,2013-07-25 21:25:00,
2013-07-25 17:40:00,67.5,59.3,30.09,SW,225,0.0,-999.0,75,-99.99,,,0.00,Acu-Link.com,2013-07-25 21:40:00,
2013-07-25 17:56:00,67.3,59.8,30.09,SW,225,0.0,-999.0,77,-99.99,,,0.00,Acu-Link.com,2013-07-25 21:56:00,
2013-07-25 18:27:00,66.4,59.3,30.08,WNW,292,0.0,-999.0,78,-99.99,,,0.00,Acu-Link.com,2013-07-25 22:27:00,
2013-07-25 18:42:00,66.0,59.3,30.09,WSW,247,0.0,-999.0,79,-99.99,,,0.00,Acu-Link.com,2013-07-25 22:42:00,
2013-07-25 18:57:00,65.5,59.5,30.09,WSW,247,0.0,-999.0,81,-99.99,,,0.00,Acu-Link.com,2013-07-25 22:57:00,
2013-07-25 19:12:00,65.1,59.1,30.09,West,270,0.0,-999.0,81,-99.99,,,0.00,Acu-Link.com,2013-07-25 23:12:00,
2013-07-25 19:27:00,64.4,59.5,30.10,WSW,247,0.0,-999.0,84,-99.99,,,0.00,Acu-Link.com,2013-07-25 23:27:00,
2013-07-25 19:43:00,64.0,60.0,30.10,WSW,247,0.0,-999.0,87,-99.99,,,0.00,Acu-Link.com,2013-07-25 23:43:00,
2013-07-25 19:58:00,63.5,59.9,30.10,SW,225,0.0,-999.0,88,-99.99,,,0.00,Acu-Link.com,2013-07-25 23:58:00,
2013-07-25 20:13:00,63.1,59.5,30.10,SW,225,0.0,-999.0,88,-99.99,,,0.00,Acu-Link.com,2013-07-26 00:13:00,
2013-07-25 20:28:00,63.0,59.4,30.10,SSW,202,0.0,-999.0,88,-99.99,,,0.00,Acu-Link.com,2013-07-26 00:28:00,
2013-07-25 20:43:00,62.6,59.3,30.10,SSW,202,0.0,-999.0,89,-99.99,,,0.00,Acu-Link.com,2013-07-26 00:43:00,
2013-07-25 20:59:00,62.2,59.2,30.11,SSW,202,0.0,-999.0,90,-99.99,,,0.00,Acu-Link.com,2013-07-26 00:59:00,
2013-07-25 21:14:00,62.1,59.1,30.11,SSW,202,0.0,-999.0,90,-99.99,,,0.00,Acu-Link.com,2013-07-26 01:14:00,
2013-07-25 21:29:00,61.7,59.3,30.10,SSW,202,0.0,-999.0,92,-99.99,,,0.00,Acu-Link.com,2013-07-26 01:29:00,
2013-07-25 21:44:00,61.5,59.2,30.11,SSW,202,0.0,-999.0,92,-99.99,,,0.00,Acu-Link.com,2013-07-26 01:44:00,
2013-07-25 21:59:00,61.2,59.2,30.10,SSW,202,0.0,-999.0,93,-99.99,,,0.00,Acu-Link.com,2013-07-26 01:59:00,
2013-07-25 22:14:00,61.0,59.3,30.10,SSW,202,0.0,-999.0,94,-99.99,,,0.00,Acu-Link.com,2013-07-26 02:14:00,
2013-07-25 22:29:00,60.8,59.4,30.10,SSW,202,0.0,-999.0,95,-99.99,,,0.00,Acu-Link.com,2013-07-26 02:29:00,
2013-07-25 22:44:00,60.4,59.3,30.10,SSW,202,0.0,-999.0,96,-99.99,,,0.00,Acu-Link.com,2013-07-26 02:44:00,
2013-07-25 23:00:00,60.4,59.5,30.11,North,0,0.0,-999.0,97,-99.99,,,0.00,Acu-Link.com,2013-07-26 03:00:00,
2013-07-25 23:15:00,60.3,59.7,30.11,South,180,0.0,-999.0,98,-99.99,,,0.00,Acu-Link.com,2013-07-26 03:15:00,
2013-07-25 23:30:00,60.3,59.4,30.11,South,180,0.0,-999.0,97,-99.99,,,0.00,Acu-Link.com,2013-07-26 03:30:00,
2013-07-25 23:46:00,60.1,59.2,30.10,South,180,0.0,-999.0,97,-99.99,,,0.00,Acu-Link.com,2013-07-26 03:46:00,